createdAt,value
2018-09-13T00:00:47.010Z,97715.27
2018-09-13T00:03:15.686Z,97710.38
2018-09-13T00:05:44.143Z,97706.06
2018-09-13T00:08:11.037Z,97704.09
2018-09-13T00:10:37.866Z,97715.00
2018-09-13T00:13:05.235Z,97710.80
2018-09-13T00:15:32.368Z,97717.39
2018-09-13T00:18:00.024Z,97718.23
2018-09-13T00:20:29.050Z,97706.48
2018-09-13T00:22:55.676Z,97706.87
2018-09-13T00:25:23.632Z,97709.55
2018-09-13T00:27:50.350Z,97718.73
2018-09-13T00:30:17.077Z,97714.05
2018-09-13T00:35:19.759Z,97706.23
2018-09-13T00:37:47.606Z,97703.09
2018-09-13T00:40:15.371Z,97710.27
2018-09-13T00:42:42.494Z,97707.00
2018-09-13T00:45:14.787Z,97697.45
2018-09-13T00:47:44.766Z,97699.07
2018-09-13T00:50:11.457Z,97698.52
2018-09-13T00:52:38.899Z,97694.48
2018-09-13T00:55:05.890Z,97694.80
2018-09-13T00:57:35.631Z,97697.77
2018-09-13T01:00:02.398Z,97699.05
2018-09-13T01:02:29.791Z,97696.32
2018-09-13T01:04:59.099Z,97698.66
2018-09-13T01:07:27.564Z,97687.95
2018-09-13T01:09:54.559Z,97688.20
2018-09-13T01:12:22.796Z,97691.27
2018-09-13T01:14:51.144Z,97696.08
2018-09-13T01:17:19.340Z,97688.83
2018-09-13T01:19:47.009Z,97686.45
2018-09-13T01:22:13.854Z,97690.16
2018-09-13T01:24:40.891Z,97687.03
2018-09-13T01:27:10.165Z,97679.75
2018-09-13T01:29:40.154Z,97676.31
2018-09-13T01:34:40.147Z,97661.19
2018-09-13T01:37:08.022Z,97663.36
2018-09-13T01:39:34.980Z,97660.22
2018-09-13T01:42:02.569Z,97656.73
2018-09-13T01:44:37.429Z,97651.97
2018-09-13T01:47:05.992Z,97653.73
2018-09-13T01:49:35.554Z,97654.11
2018-09-13T01:52:03.234Z,97655.82
2018-09-13T01:54:31.660Z,97646.59
2018-09-13T01:56:58.928Z,97643.48
2018-09-13T01:59:25.738Z,97640.30
2018-09-13T02:06:58.499Z,97639.05
2018-09-13T02:09:25.010Z,97640.76
2018-09-13T02:14:31.326Z,97644.84
2018-09-13T02:17:00.156Z,97639.53
2018-09-13T02:19:28.069Z,97638.14
2018-09-13T02:21:55.382Z,97640.89
2018-09-13T02:24:23.158Z,97643.45
2018-09-13T02:26:53.538Z,97639.55
2018-09-13T02:29:22.503Z,97635.48
2018-09-13T02:31:49.206Z,97646.02
2018-09-13T02:34:17.039Z,97653.00
2018-09-13T02:36:47.647Z,97641.05
2018-09-13T02:39:14.304Z,97645.14
2018-09-13T02:41:42.885Z,97643.91
2018-09-13T02:44:09.979Z,97646.28
2018-09-13T02:46:36.660Z,97648.09
2018-09-13T02:49:04.732Z,97644.78
2018-09-13T02:51:31.531Z,97638.04
2018-09-13T02:53:59.361Z,97629.97
2018-09-13T02:56:27.221Z,97633.11
2018-09-13T02:58:54.399Z,97631.44
2018-09-13T03:01:21.593Z,97626.09
2018-09-13T03:03:49.579Z,97628.05
2018-09-13T03:06:17.527Z,97627.55
2018-09-13T03:08:45.454Z,97629.86
2018-09-13T03:11:12.883Z,97634.62
2018-09-13T03:13:39.678Z,97629.13
2018-09-13T03:16:06.699Z,97627.06
2018-09-13T03:18:35.766Z,97626.56
2018-09-13T03:23:39.546Z,97621.67
2018-09-13T03:26:07.991Z,97617.66
2018-09-13T03:28:35.516Z,97618.29
2018-09-13T03:31:03.832Z,97616.50
2018-09-13T03:33:30.961Z,97608.17
2018-09-13T03:35:59.463Z,97608.05
2018-09-13T03:38:26.274Z,97610.72
2018-09-13T03:40:53.833Z,97608.14
2018-09-13T03:43:20.436Z,97607.80
2018-09-13T03:45:48.270Z,97604.41
2018-09-13T03:48:18.623Z,97604.50
2018-09-13T03:50:47.497Z,97607.62
2018-09-13T03:53:16.843Z,97609.11
2018-09-13T03:55:45.892Z,97617.72
2018-09-13T03:58:14.178Z,97613.78
2018-09-13T04:00:42.420Z,97608.55
2018-09-13T04:05:43.998Z,97600.34
2018-09-13T04:08:13.456Z,97602.60
2018-09-13T04:10:41.766Z,97601.28
2018-09-13T04:13:12.381Z,97595.45
2018-09-13T04:15:41.198Z,97595.89
2018-09-13T04:18:08.263Z,97596.39
2018-09-13T04:20:36.352Z,97599.20
2018-09-13T04:23:03.527Z,97602.14
2018-09-13T04:25:31.790Z,97606.45
2018-09-13T04:28:00.829Z,97610.27
2018-09-13T04:30:30.059Z,97608.27
2018-09-13T04:32:59.635Z,97612.31
2018-09-13T04:35:30.396Z,97611.08
2018-09-13T04:38:01.079Z,97606.37
2018-09-13T04:40:27.819Z,97607.17
2018-09-13T04:42:58.569Z,97612.92
2018-09-13T04:45:28.337Z,97619.28
2018-09-13T04:47:58.226Z,97624.56
2018-09-13T04:50:24.818Z,97625.77
2018-09-13T04:52:53.478Z,97622.59
2018-09-13T04:57:54.595Z,97629.08
2018-09-13T05:00:22.520Z,97631.12
2018-09-13T05:02:51.933Z,97634.48
2018-09-13T05:07:52.629Z,97632.44
2018-09-13T05:10:20.197Z,97632.44
2018-09-13T05:12:50.362Z,97626.50
2018-09-13T05:17:52.010Z,97622.55
2018-09-13T05:20:19.892Z,97627.02
2018-09-13T05:22:50.465Z,97631.77
2018-09-13T05:25:23.163Z,97635.70
2018-09-13T05:27:50.519Z,97632.81
2018-09-13T05:30:19.330Z,97637.56
2018-09-13T05:32:47.034Z,97641.71
2018-09-13T05:35:16.073Z,97629.23
2018-09-13T05:37:44.371Z,97631.85
2018-09-13T05:40:13.171Z,97627.20
2018-09-13T05:42:41.552Z,97625.38
2018-09-13T05:45:12.790Z,97627.73
2018-09-13T05:47:46.097Z,97627.06
2018-09-13T05:52:55.698Z,97630.31
2018-09-13T05:58:01.640Z,97629.41
2018-09-13T06:00:32.181Z,97627.69
2018-09-13T06:02:59.728Z,97625.20
2018-09-13T06:05:28.374Z,97622.16
2018-09-13T06:07:58.946Z,97631.48
2018-09-13T06:10:33.969Z,97631.39
2018-09-13T06:15:36.955Z,97625.09
2018-09-13T06:18:07.294Z,97624.31
2018-09-13T06:20:39.260Z,97631.11
2018-09-13T06:23:07.334Z,97627.14
2018-09-13T06:25:36.403Z,97625.91
2018-09-13T06:28:04.231Z,97618.30
2018-09-13T06:30:33.121Z,97614.55
2018-09-13T06:33:03.833Z,97621.33
2018-09-13T06:35:32.591Z,97618.80
2018-09-13T06:38:03.186Z,97617.88
2018-09-13T06:43:05.414Z,97621.22
2018-09-13T06:45:34.446Z,97613.53
2018-09-13T06:48:03.276Z,97617.84
2018-09-13T06:50:33.853Z,97619.00
2018-09-13T06:55:36.468Z,97613.59
2018-09-13T06:58:05.224Z,97614.23
2018-09-13T07:00:38.021Z,97611.44
2018-09-13T07:03:09.771Z,97603.98
2018-09-13T07:05:37.128Z,97598.63
2018-09-13T07:08:09.484Z,97598.08
2018-09-13T07:10:38.685Z,97593.80
2018-09-13T07:13:06.163Z,97589.75
2018-09-13T07:18:06.187Z,97593.52
2018-09-13T07:20:34.091Z,97585.74
2018-09-13T07:23:00.916Z,97583.27
2018-09-13T07:25:29.495Z,97583.30
2018-09-13T07:27:59.501Z,97580.08
2018-09-13T07:35:32.011Z,97592.68
2018-09-13T07:37:59.516Z,97594.86
2018-09-13T07:40:28.087Z,97598.34
2018-09-13T07:42:57.551Z,97594.81
2018-09-13T07:45:30.382Z,97599.32
2018-09-13T07:48:00.476Z,97593.70
2018-09-13T07:53:07.214Z,97598.23
2018-09-13T07:55:37.081Z,97597.45
2018-09-13T07:58:10.117Z,97601.23
2018-09-13T08:00:38.879Z,97607.89
2018-09-13T08:03:09.899Z,97601.41
2018-09-13T08:05:38.480Z,97608.91
2018-09-13T08:08:08.645Z,97603.80
2018-09-13T08:10:39.118Z,97607.28
2018-09-13T08:13:10.803Z,97598.45
2018-09-13T08:15:39.190Z,97602.53
2018-09-13T08:18:09.836Z,97611.37
2018-09-13T08:20:43.886Z,97607.15
2018-09-13T08:23:16.332Z,97601.84
2018-09-13T08:28:24.386Z,97603.21
2018-09-13T08:30:56.974Z,97602.26
2018-09-13T08:35:59.861Z,97608.56
2018-09-13T08:38:30.105Z,97604.86
2018-09-13T08:40:59.541Z,97601.44
2018-09-13T08:43:26.444Z,97599.14
2018-09-13T08:45:53.549Z,97592.37
2018-09-13T08:48:20.974Z,97589.98
2018-09-13T08:50:54.808Z,97589.73
2018-09-13T08:58:30.844Z,97590.09
2018-09-13T09:01:01.306Z,97579.08
2018-09-13T09:03:29.227Z,97580.53
2018-09-13T09:05:59.912Z,97578.76
2018-09-13T09:08:34.433Z,97577.58
2018-09-13T09:11:03.428Z,97578.25
2018-09-13T09:16:03.951Z,97577.31
2018-09-13T09:18:36.372Z,97573.12
2018-09-13T09:23:42.817Z,97574.98
2018-09-13T09:28:48.925Z,97572.78
2018-09-13T09:31:20.978Z,97569.67
2018-09-13T09:33:48.862Z,97566.14
2018-09-13T09:36:17.430Z,97569.09
2018-09-13T09:38:47.365Z,97567.34
2018-09-13T09:41:23.071Z,97560.45
2018-09-13T09:46:26.136Z,97560.61
2018-09-13T09:48:54.846Z,97555.95
2018-09-13T09:59:12.530Z,97538.53
2018-09-13T10:04:19.468Z,97538.03
2018-09-13T10:06:51.135Z,97531.30
2018-09-13T10:09:20.658Z,97528.50
2018-09-13T10:11:51.578Z,97529.48
2018-09-13T10:14:19.038Z,97520.31
2018-09-13T10:16:46.025Z,97527.86
2018-09-13T10:21:52.513Z,97518.69
2018-09-13T10:32:12.534Z,97512.59
2018-09-13T10:34:42.241Z,97505.41
2018-09-13T10:37:12.043Z,97505.33
2018-09-13T10:39:47.262Z,97506.63
2018-09-13T10:44:49.417Z,97500.07
2018-09-13T10:47:20.224Z,97503.45
2018-09-13T10:49:49.730Z,97503.81
2018-09-13T10:52:16.806Z,97501.83
2018-09-13T10:54:45.507Z,97501.13
2018-09-13T11:05:10.795Z,97493.70
2018-09-13T11:07:40.245Z,97485.22
2018-09-13T11:10:08.809Z,97481.33
2018-09-13T11:12:38.245Z,97483.53
2018-09-13T11:15:09.142Z,97478.97
2018-09-13T11:22:42.660Z,97468.67
2018-09-13T11:25:10.314Z,97468.80
2018-09-13T11:32:48.805Z,97456.41
2018-09-13T11:35:16.192Z,97449.92
2018-09-13T11:37:43.940Z,97441.62
2018-09-13T11:43:06.353Z,97437.11
2018-09-13T11:48:16.956Z,97435.16
2018-09-13T11:50:45.242Z,97433.58
2018-09-13T11:55:52.092Z,97441.44
2018-09-13T11:58:28.085Z,97434.98
2018-09-13T12:03:48.693Z,97435.59
2018-09-13T12:06:15.651Z,97427.94
2018-09-13T12:08:45.162Z,97424.33
2018-09-13T12:11:12.750Z,97435.13
2018-09-13T12:13:41.527Z,97425.77
2018-09-13T12:18:45.166Z,97425.92
2018-09-13T12:21:20.010Z,97421.27
2018-09-13T12:26:33.623Z,97420.08
2018-09-13T12:34:23.040Z,97412.14
2018-09-13T12:52:33.110Z,97398.72
2018-09-13T12:55:01.586Z,97394.59
2018-09-13T13:03:01.055Z,97394.98
2018-09-13T13:13:33.344Z,97385.54
2018-09-13T13:16:04.696Z,97389.41
2018-09-13T13:18:36.173Z,97384.60
2018-09-13T13:23:50.306Z,97381.06
2018-09-13T13:26:18.386Z,97375.45
2018-09-13T13:28:46.428Z,97379.02
2018-09-13T13:33:50.345Z,97367.73
2018-09-13T13:36:18.571Z,97369.16
2018-09-13T13:38:48.989Z,97370.52
2018-09-13T13:44:00.643Z,97357.23
2018-09-13T13:46:30.606Z,97360.19
2018-09-13T13:54:17.513Z,97354.58
2018-09-13T13:56:46.552Z,97358.46
2018-09-13T14:02:17.700Z,97349.19
2018-09-13T14:04:47.004Z,97352.26
2018-09-13T14:12:27.145Z,97354.03
2018-09-13T14:14:56.921Z,97346.38
2018-09-13T14:20:15.704Z,97344.86
2018-09-13T14:22:44.844Z,97350.72
2018-09-13T14:32:56.583Z,97346.23
2018-09-13T14:35:25.416Z,97343.36
2018-09-13T14:40:27.869Z,97337.00
2018-09-13T14:45:35.961Z,97341.67
2018-09-13T14:48:04.355Z,97338.52
2018-09-13T14:50:33.061Z,97346.09
2018-09-13T14:53:02.344Z,97339.05
2018-09-13T15:03:23.700Z,97332.96
2018-09-13T15:05:52.857Z,97331.58
2018-09-13T15:10:51.096Z,97325.45
2018-09-13T15:18:40.972Z,97324.73
2018-09-13T15:21:13.841Z,97320.11
2018-09-13T15:23:42.310Z,97320.52
2018-09-13T15:31:43.281Z,97317.89
2018-09-13T15:34:11.232Z,97323.84
2018-09-13T15:36:43.854Z,97320.11
2018-09-13T15:41:52.197Z,97323.81
2018-09-13T15:46:57.404Z,97316.09
2018-09-13T15:57:25.060Z,97319.91
2018-09-13T15:59:52.893Z,97312.80
2018-09-13T16:02:19.747Z,97320.08
2018-09-13T16:10:01.772Z,97319.16
2018-09-13T16:17:46.383Z,97316.11
2018-09-13T16:22:48.715Z,97315.96
2018-09-13T16:25:22.878Z,97310.84
2018-09-13T16:30:28.119Z,97306.49
2018-09-13T16:40:35.648Z,97316.91
2018-09-13T16:43:02.309Z,97313.22
2018-09-13T16:45:31.840Z,97316.42
2018-09-13T16:50:32.980Z,97314.52
2018-09-13T16:53:03.215Z,97317.09
2018-09-13T17:00:33.146Z,97324.23
2018-09-13T17:03:02.663Z,97319.79
2018-09-13T17:05:33.747Z,97318.64
2018-09-13T17:08:04.555Z,97322.16
2018-09-13T17:10:35.183Z,97329.47
2018-09-13T17:13:05.763Z,97333.03
2018-09-13T17:15:36.082Z,97335.08
2018-09-13T17:18:06.273Z,97339.19
2018-09-13T17:20:38.216Z,97341.78
2018-09-13T17:23:07.044Z,97341.84
2018-09-13T17:25:35.201Z,97348.89
2018-09-13T17:28:03.174Z,97349.54
2018-09-13T17:33:06.480Z,97352.63
2018-09-13T17:35:37.198Z,97361.12
2018-09-13T17:38:05.757Z,97359.32
2018-09-13T17:40:33.897Z,97362.37
2018-09-13T17:45:41.803Z,97368.85
2018-09-13T17:48:09.284Z,97370.09
2018-09-13T17:50:37.848Z,97372.27
2018-09-13T17:53:08.156Z,97374.39
2018-09-13T17:58:09.444Z,97377.22
2018-09-13T18:03:15.070Z,97380.73
2018-09-13T18:05:43.456Z,97391.31
2018-09-13T18:08:17.543Z,97390.34
2018-09-13T18:10:45.798Z,97391.90
2018-09-13T18:13:14.222Z,97398.98
2018-09-13T18:15:42.273Z,97396.53
2018-09-13T18:18:09.535Z,97401.34
2018-09-13T18:20:40.345Z,97406.03
2018-09-13T18:23:11.894Z,97406.67
2018-09-13T18:25:40.317Z,97404.47
2018-09-13T18:30:43.437Z,97408.38
2018-09-13T18:38:27.059Z,97415.09
2018-09-13T18:40:56.942Z,97419.80
2018-09-13T18:43:25.028Z,97420.58
2018-09-13T18:45:57.034Z,97412.98
2018-09-13T18:48:33.209Z,97419.30
2018-09-13T18:51:00.786Z,97410.83
2018-09-13T18:53:29.220Z,97417.23
2018-09-13T18:58:34.020Z,97422.50
2018-09-13T19:03:37.399Z,97428.64
2018-09-13T19:06:05.010Z,97427.42
2018-09-13T19:08:34.348Z,97427.72
2018-09-13T19:11:03.376Z,97432.91
2018-09-13T19:13:37.298Z,97435.92
2018-09-13T19:16:08.262Z,97435.16
2018-09-13T19:18:44.341Z,97442.15
2018-09-13T19:21:12.479Z,97434.66
2018-09-13T19:26:13.542Z,97434.23
2018-09-13T19:28:46.352Z,97436.99
2018-09-13T19:31:14.575Z,97429.48
2018-09-13T19:33:46.975Z,97431.09
2018-09-13T19:36:14.888Z,97434.63
2018-09-13T19:38:41.499Z,97435.11
2018-09-13T19:41:10.909Z,97435.93
2018-09-13T19:43:37.626Z,97441.59
2018-09-13T19:46:06.778Z,97438.12
2018-09-13T19:48:39.523Z,97444.05
2018-09-13T19:53:45.752Z,97454.97
2018-09-13T19:56:21.376Z,97449.58
2018-09-13T19:58:49.553Z,97449.41
2018-09-13T20:01:23.004Z,97456.41
2018-09-13T20:03:52.904Z,97452.94
2018-09-13T20:06:19.778Z,97458.54
2018-09-13T20:08:47.035Z,97455.71
2018-09-13T20:11:15.333Z,97460.83
2018-09-13T20:16:22.581Z,97459.73
2018-09-13T20:18:53.542Z,97455.72
2018-09-13T20:21:23.240Z,97457.38
2018-09-13T20:23:55.794Z,97459.78
2018-09-13T20:26:23.649Z,97451.68
2018-09-13T20:28:52.373Z,97455.45
2018-09-13T20:31:21.760Z,97452.23
2018-09-13T20:33:50.503Z,97455.97
2018-09-13T20:36:25.231Z,97455.70
2018-09-13T20:41:25.297Z,97452.27
2018-09-13T20:43:55.952Z,97446.86
2018-09-13T20:46:23.935Z,97450.63
2018-09-13T20:51:37.032Z,97460.86
2018-09-13T20:54:07.749Z,97456.84
2018-09-13T20:56:37.096Z,97461.38
2018-09-13T20:59:05.938Z,97457.06
2018-09-13T21:01:35.156Z,97458.18
2018-09-13T21:04:02.371Z,97459.27
2018-09-13T21:06:29.804Z,97459.80
2018-09-13T21:08:59.929Z,97458.44
2018-09-13T21:11:31.708Z,97455.78
2018-09-13T21:16:31.538Z,97455.22
2018-09-13T21:19:03.498Z,97446.88
2018-09-13T21:21:32.269Z,97449.31
2018-09-13T21:24:03.068Z,97446.90
2018-09-13T21:29:08.052Z,97451.70
2018-09-13T21:31:37.596Z,97446.09
2018-09-13T21:34:07.652Z,97443.12
2018-09-13T21:36:35.055Z,97443.13
2018-09-13T21:39:03.708Z,97446.34
2018-09-13T21:41:35.314Z,97449.28
2018-09-13T21:44:04.582Z,97448.49
2018-09-13T21:46:34.814Z,97453.59
2018-09-13T21:54:11.631Z,97443.13
2018-09-13T21:56:40.141Z,97436.16
2018-09-13T21:59:09.009Z,97442.30
2018-09-13T22:01:37.313Z,97442.05
2018-09-13T22:04:07.283Z,97440.45
2018-09-13T22:06:41.085Z,97444.17
2018-09-13T22:09:13.780Z,97438.27
2018-09-13T22:11:44.118Z,97444.12
2018-09-13T22:14:15.900Z,97439.06
2018-09-13T22:16:44.692Z,97439.09
2018-09-13T22:19:14.222Z,97434.28
2018-09-13T22:21:43.818Z,97433.47
2018-09-13T22:24:11.288Z,97426.73
2018-09-13T22:26:37.873Z,97434.19
2018-09-13T22:29:09.476Z,97433.09
2018-09-13T22:31:38.175Z,97428.08
2018-09-13T22:34:07.910Z,97429.69
2018-09-13T22:39:21.715Z,97429.94
2018-09-13T22:46:54.256Z,97427.23
2018-09-13T22:49:23.245Z,97430.70
2018-09-13T22:51:51.250Z,97432.58
2018-09-13T22:54:18.921Z,97433.41
2018-09-13T22:56:54.117Z,97435.53
2018-09-13T22:59:23.785Z,97438.76
2018-09-13T23:01:52.324Z,97438.70
2018-09-13T23:04:20.784Z,97444.63
2018-09-13T23:06:50.533Z,97445.17
2018-09-13T23:09:21.197Z,97438.70
2018-09-13T23:11:51.245Z,97435.22
2018-09-13T23:14:22.369Z,97443.77
2018-09-13T23:16:52.819Z,97441.63
2018-09-13T23:19:20.691Z,97442.45
2018-09-13T23:21:49.862Z,97442.70
2018-09-13T23:24:19.694Z,97441.05
2018-09-13T23:26:51.024Z,97445.07
2018-09-13T23:29:19.096Z,97442.86
2018-09-13T23:31:48.202Z,97446.92
2018-09-13T23:34:17.866Z,97441.08
2018-09-13T23:36:45.806Z,97446.20
2018-09-13T23:39:14.544Z,97445.40
2018-09-13T23:41:43.308Z,97441.89
2018-09-13T23:44:11.477Z,97448.06
2018-09-13T23:46:41.807Z,97442.70
2018-09-13T23:49:10.921Z,97438.69
2018-09-13T23:51:38.466Z,97435.70
2018-09-13T23:54:07.054Z,97436.24
2018-09-13T23:56:37.025Z,97434.38
2018-09-13T23:59:09.695Z,97436.52
